Time;durP1;ratioP1;P1;durP2;ratioP2;P2;SDS_P1;SDS_P2;PMS_P1;PMS_P2;Temp;Humidity;BMP_temperature;BMP_pressure;BME280_temperature;BME280_humidity;BME280_pressure;Samples;Min_cycle;Max_cycle;Signal;HPM_P1;HPM_P2
2023/10/06 00:01:44;;;;;;;9.85;6.80;;;;;;;12.53;100.00;100471.50;5015872;28;20030;-89
2023/10/06 00:04:13;;;;;;;7.43;6.50;;;;;;;12.51;100.00;100466.31;4991657;28;20423;-88
2023/10/06 00:06:42;;;;;;;9.25;6.65;;;;;;;12.56;100.00;100466.16;4971891;28;20039;-89
2023/10/06 00:09:25;;;;;;;8.05;6.22;;;;;;;12.59;100.00;100473.84;4954598;28;20145;-89
2023/10/06 00:11:51;;;;;;;9.02;6.47;;;;;;;12.64;100.00;100482.31;4971966;28;20102;-89
2023/10/06 00:14:38;;;;;;;7.95;6.45;;;;;;;12.56;100.00;100466.16;4955969;28;20141;-89
2023/10/06 00:17:17;;;;;;;8.77;6.30;;;;;;;12.66;100.00;100473.53;4956015;28;20062;-89
2023/10/06 00:19:48;;;;;;;9.90;6.90;;;;;;;12.70;100.00;100488.16;4971779;28;20035;-89
2023/10/06 00:24:42;;;;;;;8.70;6.50;;;;;;;12.77;100.00;100478.31;4952474;29;20039;-89
2023/10/06 00:27:13;;;;;;;10.88;7.35;;;;;;;12.77;100.00;100475.69;4936540;29;20126;-89
2023/10/06 00:29:48;;;;;;;10.90;7.60;;;;;;;12.81;100.00;100486.84;4936315;29;20479;-88
2023/10/06 00:32:22;;;;;;;8.65;6.57;;;;;;;12.83;100.00;100495.50;4936469;29;20046;-89
2023/10/06 00:34:49;;;;;;;12.93;7.80;;;;;;;12.93;100.00;100510.72;4959010;28;20043;-89
2023/10/06 00:37:16;;;;;;;8.10;6.88;;;;;;;12.70;100.00;100464.63;4968571;28;20117;-90
2023/10/06 00:39:42;;;;;;;10.57;6.95;;;;;;;12.85;100.00;100494.53;4971362;28;20050;-90
2023/10/06 00:42:08;;;;;;;9.90;7.38;;;;;;;12.87;100.00;100487.44;4971727;28;20094;-90
2023/10/06 00:44:34;;;;;;;10.80;8.43;;;;;;;12.96;100.00;100501.91;4955229;28;20042;-90
2023/10/06 00:47:05;;;;;;;13.52;8.10;;;;;;;12.94;100.00;100498.50;4971472;28;20038;-90
2023/10/06 00:49:32;;;;;;;9.93;7.63;;;;;;;12.93;100.00;100502.88;4955223;28;20058;-90
2023/10/06 00:51:59;;;;;;;10.32;7.82;;;;;;;12.90;100.00;100497.78;4971465;28;20039;-91
2023/10/06 00:54:26;;;;;;;8.98;7.80;;;;;;;12.99;100.00;100507.84;4955304;28;20038;-90
2023/10/06 00:56:58;;;;;;;10.90;8.35;;;;;;;12.95;100.00;100500.19;4955282;28;20035;-90
2023/10/06 00:59:26;;;;;;;11.73;8.23;;;;;;;12.91;100.00;100499.47;4962945;28;20105;-90
2023/10/06 01:01:52;;;;;;;10.30;8.05;;;;;;;12.90;100.00;100496.94;4990876;28;20061;-90
2023/10/06 01:04:24;;;;;;;11.05;7.80;;;;;;;12.97;100.00;100504.44;4974263;28;20129;-90
2023/10/06 01:06:54;;;;;;;12.07;8.68;;;;;;;12.94;100.00;100495.91;4974091;28;20042;-89
2023/10/06 01:09:30;;;;;;;12.20;7.95;;;;;;;12.86;100.00;100477.06;4974171;28;20129;-90
2023/10/06 01:11:57;;;;;;;9.68;7.78;;;;;;;12.98;100.00;100492.22;4974279;28;20022;-90
2023/10/06 01:14:26;;;;;;;10.00;8.55;;;;;;;12.98;100.00;100489.63;4974240;28;20030;-89
2023/10/06 01:16:56;;;;;;;13.13;9.10;;;;;;;12.88;100.00;100470.00;4989876;28;20200;-89
2023/10/06 01:21:53;;;;;;;13.10;9.32;;;;;;;12.81;100.00;100458.97;5031981;28;20029;-89
2023/10/06 01:24:25;;;;;;;13.30;9.77;;;;;;;12.96;100.00;100500.13;5014453;28;20040;-90
2023/10/06 01:26:53;;;;;;;13.07;9.02;;;;;;;12.93;100.00;100492.41;5014378;28;20033;-90
2023/10/06 01:29:22;;;;;;;14.60;9.23;;;;;;;12.79;100.00;100468.63;5014536;28;20043;-90
2023/10/06 01:31:49;;;;;;;14.30;10.35;;;;;;;12.94;100.00;100496.75;5014283;28;20028;-90
2023/10/06 01:34:16;;;;;;;12.15;8.65;;;;;;;12.79;100.00;100470.41;5014610;28;20519;-90
2023/10/06 01:36:45;;;;;;;11.38;8.57;;;;;;;12.92;100.00;100501.16;5030489;28;20120;-89
2023/10/06 01:39:16;;;;;;;13.55;9.70;;;;;;;12.95;100.00;100492.34;5014044;28;20108;-90
2023/10/06 01:41:46;;;;;;;9.80;8.80;;;;;;;12.98;100.00;100494.84;5014141;28;20121;-89
2023/10/06 01:44:12;;;;;;;13.35;9.60;;;;;;;13.02;100.00;100506.88;5032015;28;20108;-90
2023/10/06 01:46:38;;;;;;;11.13;9.30;;;;;;;13.06;100.00;100508.44;5013902;28;20034;-89
2023/10/06 01:49:04;;;;;;;11.88;9.25;;;;;;;13.04;100.00;100504.19;5014239;28;20088;-89
2023/10/06 01:51:38;;;;;;;12.80;9.73;;;;;;;13.03;100.00;100508.56;5013668;28;20029;-89
2023/10/06 01:54:12;;;;;;;11.27;9.00;;;;;;;12.94;100.00;100499.34;5014238;28;20056;-89
2023/10/06 01:56:42;;;;;;;11.88;9.75;;;;;;;13.07;100.00;100524.97;5013883;28;20028;-89
2023/10/06 01:59:12;;;;;;;11.85;10.02;;;;;;;12.70;100.00;100463.78;5014044;28;20065;-89
2023/10/06 02:01:41;;;;;;;15.38;9.32;;;;;;;12.87;100.00;100497.06;5013799;28;20036;-90
2023/10/06 02:04:10;;;;;;;13.35;8.75;;;;;;;12.70;100.00;100469.88;5013940;28;20163;-90
2023/10/06 02:06:35;;;;;;;10.77;9.43;;;;;;;12.95;100.00;100521.13;5031651;28;20025;-89
2023/10/06 02:09:05;;;;;;;12.20;9.85;;;;;;;12.68;100.00;100484.78;5013794;28;20046;-90
2023/10/06 02:11:34;;;;;;;11.13;9.65;;;;;;;12.94;100.00;100509.81;5014007;28;20033;-90
2023/10/06 02:13:59;;;;;;;12.65;10.68;;;;;;;12.98;100.00;100515.78;5014043;28;20521;-90
2023/10/06 02:16:26;;;;;;;14.23;10.75;;;;;;;12.93;100.00;100510.72;5014029;28;20018;-90
2023/10/06 02:18:55;;;;;;;12.57;9.70;;;;;;;12.99;100.00;100520.06;5013636;28;20612;-90
2023/10/06 02:21:24;;;;;;;11.45;9.20;;;;;;;12.79;100.00;100478.25;5013949;28;20057;-90
2023/10/06 02:23:51;;;;;;;10.90;9.35;;;;;;;12.90;100.00;100510.84;5013431;28;20320;-90
2023/10/06 02:26:17;;;;;;;11.55;8.70;;;;;;;12.96;100.00;100507.97;5013918;28;20124;-90
2023/10/06 02:28:48;;;;;;;11.43;9.95;;;;;;;12.82;100.00;100481.56;5013550;28;20029;-90
2023/10/06 02:31:14;;;;;;;16.63;9.90;;;;;;;13.01;100.00;100520.00;5031170;28;20392;-90
2023/10/06 02:33:40;;;;;;;13.23;9.63;;;;;;;12.94;100.00;100511.59;5017291;28;20025;-90
2023/10/06 02:36:23;;;;;;;13.18;9.98;;;;;;;12.85;100.00;100491.03;5035443;28;20084;-89
2023/10/06 02:38:50;;;;;;;17.85;9.70;;;;;;;12.96;100.00;100518.44;5017259;28;20067;-90
2023/10/06 02:41:23;;;;;;;12.65;8.40;;;;;;;12.91;100.00;100506.47;5017405;28;20029;-89
2023/10/06 02:43:50;;;;;;;11.30;8.98;;;;;;;12.84;100.00;100491.97;5017256;28;20424;-90
2023/10/06 02:46:20;;;;;;;10.77;9.50;;;;;;;12.99;100.00;100520.91;5017457;28;20052;-90
2023/10/06 02:48:48;;;;;;;14.48;9.27;;;;;;;12.95;100.00;100500.19;5017196;28;20357;-90
2023/10/06 02:51:18;;;;;;;12.23;9.25;;;;;;;13.01;100.00;100506.91;5017310;28;20452;-89
2023/10/06 02:53:49;;;;;;;13.35;9.93;;;;;;;12.85;100.00;100488.41;5016944;28;20385;-89
2023/10/06 02:56:16;;;;;;;10.98;8.70;;;;;;;12.80;100.00;100483.38;5016951;28;20064;-89
2023/10/06 02:58:42;;;;;;;9.35;7.68;;;;;;;12.85;100.00;100483.19;5016996;28;20451;-89
2023/10/06 03:01:11;;;;;;;9.50;7.90;;;;;;;12.96;100.00;100500.13;5017271;28;20122;-90
2023/10/06 03:03:37;;;;;;;14.20;9.57;;;;;;;12.77;100.00;100473.09;5012178;28;20060;-89
2023/10/06 03:06:07;;;;;;;12.63;9.07;;;;;;;12.97;100.00;100501.81;4996132;28;20500;-90
2023/10/06 03:08:33;;;;;;;10.77;8.30;;;;;;;12.97;100.00;100504.44;4995790;28;20081;-90
2023/10/06 03:11:00;;;;;;;10.40;7.75;;;;;;;12.96;100.00;100507.13;4995843;28;20089;-89
2023/10/06 03:13:35;;;;;;;9.77;8.32;;;;;;;12.96;100.00;100509.75;4996021;28;20110;-89
2023/10/06 03:16:01;;;;;;;10.18;7.82;;;;;;;12.93;100.00;100513.31;4995944;28;20033;-90
2023/10/06 03:18:28;;;;;;;9.98;7.47;;;;;;;12.89;100.00;100503.06;5012282;28;20034;-90
2023/10/06 03:21:00;;;;;;;9.80;8.75;;;;;;;12.90;100.00;100505.63;4995602;28;20041;-89
2023/10/06 03:25:56;;;;;;;15.20;8.32;;;;;;;12.78;100.00;100485.22;5012076;28;19917;-89
2023/10/06 03:28:28;;;;;;;10.23;8.00;;;;;;;12.78;100.00;100484.38;4995784;28;20153;-90
2023/10/06 03:30:54;;;;;;;9.63;8.63;;;;;;;12.85;100.00;100507.59;5012051;28;20038;-90
2023/10/06 03:33:19;;;;;;;11.00;8.38;;;;;;;12.86;100.00;100509.28;5012066;28;20032;-90
2023/10/06 03:35:48;;;;;;;10.50;8.10;;;;;;;12.84;100.00;100499.78;5011940;28;20555;-89
2023/10/06 03:40:59;;;;;;;12.00;8.35;;;;;;;12.69;100.00;100473.41;5019692;28;20041;-90
2023/10/06 03:43:33;;;;;;;11.60;8.57;;;;;;;12.86;100.00;100508.44;5016219;28;20037;-90
2023/10/06 03:46:00;;;;;;;10.90;8.20;;;;;;;12.84;100.00;100503.25;5015986;28;20033;-90
2023/10/06 03:48:29;;;;;;;12.32;8.38;;;;;;;12.84;100.00;100503.25;5016057;28;20025;-90
2023/10/06 03:50:56;;;;;;;10.07;8.32;;;;;;;12.91;100.00;100515.16;5016025;28;20485;-89
2023/10/06 03:53:24;;;;;;;12.82;7.85;;;;;;;12.90;100.00;100515.25;5032668;28;20377;-90
2023/10/06 03:55:49;;;;;;;12.27;9.60;;;;;;;12.75;100.00;100480.13;5015794;28;20021;-89
2023/10/06 03:58:18;;;;;;;10.55;8.50;;;;;;;12.71;100.00;100474.16;5033715;28;20488;-90
2023/10/06 04:00:47;;;;;;;9.75;7.03;;;;;;;12.93;100.00;100504.63;5011086;28;20506;-90
2023/10/06 04:03:14;;;;;;;10.38;9.10;;;;;;;12.91;100.00;100498.63;4994897;28;20077;-90
2023/10/06 04:05:50;;;;;;;11.50;8.82;;;;;;;12.82;100.00;100499.03;4994787;28;20073;-90
2023/10/06 04:08:18;;;;;;;12.82;8.70;;;;;;;12.87;100.00;100513.59;4994773;28;20408;-90
2023/10/06 04:10:45;;;;;;;11.70;9.07;;;;;;;12.63;100.00;100496.31;4994641;28;20030;-89
2023/10/06 04:13:11;;;;;;;12.93;9.23;;;;;;;12.80;100.00;100529.59;4994773;28;20030;-90
2023/10/06 04:15:48;;;;;;;10.73;8.05;;;;;;;12.90;100.00;100536.16;4994845;28;20038;-90
2023/10/06 04:18:22;;;;;;;14.10;8.93;;;;;;;12.78;100.00;100518.38;4994830;28;20209;-90
2023/10/06 04:20:48;;;;;;;10.32;8.45;;;;;;;12.87;100.00;100529.28;4994488;28;20040;-90
2023/10/06 04:23:17;;;;;;;13.20;9.95;;;;;;;12.80;100.00;100526.97;4994677;28;20030;-90
2023/10/06 04:25:44;;;;;;;11.52;9.60;;;;;;;12.60;100.00;100499.06;4991007;28;20042;-89
2023/10/06 04:28:16;;;;;;;14.45;10.75;;;;;;;12.82;100.00;100528.63;4991518;28;20139;-90
2023/10/06 04:30:43;;;;;;;12.70;10.35;;;;;;;12.86;100.00;100542.44;4974816;28;20046;-90
2023/10/06 04:33:13;;;;;;;12.95;10.13;;;;;;;12.80;100.00;100526.97;4975164;28;20045;-90
2023/10/06 04:35:40;;;;;;;15.73;10.55;;;;;;;12.84;100.00;100539.84;4991187;28;20038;-90
2023/10/06 04:38:12;;;;;;;14.75;11.73;;;;;;;12.87;100.00;100546.75;4991107;28;20702;-90
2023/10/06 04:40:38;;;;;;;17.40;12.20;;;;;;;12.86;100.00;100550.28;4975039;28;20054;-91
2023/10/06 04:43:03;;;;;;;17.13;13.25;;;;;;;12.85;100.00;100552.03;4974885;28;20035;-90
2023/10/06 04:45:32;;;;;;;12.68;10.82;;;;;;;12.56;100.00;100500.97;4991103;28;20046;-91
2023/10/06 04:48:00;;;;;;;16.65;12.00;;;;;;;12.69;100.00;100519.59;4933013;29;20418;-90
2023/10/06 04:50:29;;;;;;;14.65;11.68;;;;;;;12.65;100.00;100512.81;4917591;29;20440;-90
2023/10/06 04:52:55;;;;;;;12.95;11.18;;;;;;;12.82;100.00;100543.47;4932758;29;20055;-90
2023/10/06 04:55:21;;;;;;;12.90;10.93;;;;;;;12.62;100.00;100513.75;4916607;29;20605;-90
2023/10/06 04:57:47;;;;;;;14.38;11.70;;;;;;;12.82;100.00;100543.47;4953550;28;20146;-90
2023/10/06 05:00:19;;;;;;;15.55;12.00;;;;;;;12.72;100.00;100525.56;4955306;28;20050;-90
2023/10/06 05:02:50;;;;;;;16.65;13.55;;;;;;;12.89;100.00;100565.81;4971034;28;20050;-90
2023/10/06 05:05:20;;;;;;;14.20;11.65;;;;;;;12.84;100.00;100559.94;4971252;28;20094;-90
2023/10/06 05:07:50;;;;;;;17.63;12.55;;;;;;;12.73;100.00;100529.03;4970973;28;20474;-90
2023/10/06 05:10:21;;;;;;;18.25;12.25;;;;;;;12.83;100.00;100553.84;4971276;28;20042;-90
2023/10/06 05:12:46;;;;;;;16.60;11.77;;;;;;;12.93;100.00;100572.63;4970924;28;20061;-90
2023/10/06 05:15:23;;;;;;;14.07;11.13;;;;;;;12.82;100.00;100544.31;4955056;28;20466;-90
2023/10/06 05:17:49;;;;;;;19.73;12.73;;;;;;;12.94;100.00;100562.13;4956375;28;20038;-90
2023/10/06 05:20:20;;;;;;;15.98;12.45;;;;;;;12.92;100.00;100558.69;5014762;28;20377;-91
2023/10/06 05:22:48;;;;;;;14.05;11.95;;;;;;;12.76;100.00;100546.31;5014399;28;20082;-90
2023/10/06 05:25:15;;;;;;;14.52;12.07;;;;;;;12.95;100.00;100574.25;5031021;28;20041;-90
2023/10/06 05:27:42;;;;;;;16.23;12.70;;;;;;;12.88;100.00;100564.97;5014809;28;20436;-90
2023/10/06 05:30:08;;;;;;;16.40;12.95;;;;;;;12.61;100.00;100513.84;5014204;28;20033;-91
2023/10/06 05:32:33;;;;;;;16.17;12.18;;;;;;;12.92;100.00;100574.38;5014293;28;20032;-90
2023/10/06 05:34:58;;;;;;;15.90;12.57;;;;;;;13.02;100.00;100582.72;5014290;28;20059;-90
2023/10/06 05:37:24;;;;;;;16.42;13.05;;;;;;;12.67;100.00;100539.72;5014553;28;20147;-90
2023/10/06 05:39:49;;;;;;;17.35;12.73;;;;;;;12.95;100.00;100589.09;5014135;28;20063;-90
2023/10/06 05:42:15;;;;;;;15.82;12.80;;;;;;;12.63;100.00;100530.28;5014284;28;20033;-90
2023/10/06 05:44:41;;;;;;;19.63;13.32;;;;;;;13.02;100.00;100589.69;5030781;28;20088;-89
2023/10/06 05:47:08;;;;;;;19.88;13.43;;;;;;;12.95;100.00;100582.09;5013989;28;20021;-91
2023/10/06 05:49:38;;;;;;;15.40;12.43;;;;;;;13.01;100.00;100575.75;5009514;28;20548;-89
2023/10/06 05:52:10;;;;;;;15.88;13.02;;;;;;;13.11;100.00;100591.94;4993101;28;20655;-90
2023/10/06 05:54:36;;;;;;;;;;;;;;;13.11;100.00;100590.16;5010176;28;20038;-90
2023/10/06 05:57:01;;;;;;;15.05;12.18;;;;;;;12.92;100.00;100558.69;5009294;28;20274;-90
2023/10/06 05:59:27;;;;;;;15.32;12.15;;;;;;;13.14;100.00;100587.41;4993249;28;20064;-90
2023/10/06 06:02:00;;;;;;;19.98;14.00;;;;;;;13.18;100.00;100581.13;4993136;28;20390;-89
2023/10/06 06:04:28;;;;;;;17.63;13.68;;;;;;;13.17;100.00;100576.81;4993215;28;20077;-90
2023/10/06 06:06:56;;;;;;;16.40;13.18;;;;;;;13.18;100.00;100581.13;4995157;28;20112;-90
2023/10/06 06:09:25;;;;;;;15.30;12.00;;;;;;;13.14;100.00;100581.31;4993775;28;20565;-90
2023/10/06 06:11:51;;;;;;;13.85;11.48;;;;;;;13.21;100.00;100590.63;4990004;28;20030;-90
2023/10/06 06:14:20;;;;;;;16.08;12.15;;;;;;;13.39;100.00;100591.63;4996253;28;20502;-90
2023/10/06 06:16:46;;;;;;;15.55;11.90;;;;;;;13.25;100.00;100552.97;4993201;28;20026;-89
2023/10/06 06:19:11;;;;;;;16.85;11.98;;;;;;;13.66;100.00;100587.81;4996098;28;20037;-89
2023/10/06 06:21:38;;;;;;;17.95;12.70;;;;;;;13.94;100.00;100603.13;5016158;28;20033;-90
2023/10/06 06:24:06;;;;;;;13.40;12.00;;;;;;;13.98;100.00;100580.25;5032765;28;20064;-91
2023/10/06 06:26:32;;;;;;;13.90;11.05;;;;;;;14.29;100.00;100602.44;5012307;28;20037;-89
2023/10/06 06:29:02;;;;;;;12.15;9.63;;;;;;;14.49;100.00;100602.34;5011339;28;20500;-89
2023/10/06 06:31:34;;;;;;;14.98;9.60;;;;;;;14.44;100.00;100565.00;4977134;28;20043;-90
2023/10/06 06:34:06;;;;;;;13.02;10.00;;;;;;;14.92;100.00;100611.66;4977093;28;20030;-90
2023/10/06 06:36:32;;;;;;;14.15;9.93;;;;;;;15.32;100.00;100606.16;4977073;28;20042;-90
2023/10/06 06:38:58;;;;;;;11.77;9.25;;;;;;;15.29;100.00;100557.28;4976930;28;20031;-90
2023/10/06 06:41:24;;;;;;;12.07;9.27;;;;;;;15.52;100.00;100585.00;4977053;28;20035;-90
2023/10/06 06:43:54;;;;;;;14.90;9.85;;;;;;;15.61;100.00;100597.63;4992972;28;20034;-90
2023/10/06 06:46:20;;;;;;;9.50;8.27;;;;;;;15.71;100.00;100606.75;4993204;28;20042;-90
2023/10/06 06:48:46;;;;;;;10.80;8.57;;;;;;;15.62;100.00;100596.69;4993207;28;20390;-90
2023/10/06 06:51:12;;;;;;;10.40;8.15;;;;;;;15.35;100.00;100564.88;4992812;28;20117;-89
2023/10/06 06:53:39;;;;;;;9.88;7.90;;;;;;;15.29;100.00;100564.31;4993058;28;20117;-90
2023/10/06 06:56:05;;;;;;;8.18;6.45;;;;;;;15.42;100.00;100589.00;4992571;28;20088;-90
2023/10/06 06:58:32;;;;;;;9.75;6.28;;;;;;;15.45;100.00;100599.34;5010734;28;20038;-90
2023/10/06 07:00:58;;;;;;;10.68;6.70;;;;;;;15.45;100.00;100596.72;4996008;28;20042;-90
2023/10/06 07:03:24;;;;;;;10.32;6.70;;;;;;;15.36;100.00;100550.81;4996151;28;20084;-89
2023/10/06 07:05:50;;;;;;;10.43;6.68;;;;;;;15.88;100.00;100597.13;5012198;28;20128;-90
2023/10/06 07:08:15;;;;;;;9.10;6.05;;;;;;;16.00;100.00;100587.75;4999619;28;20077;-90
2023/10/06 07:10:46;;;;;;;10.75;6.07;;;;;;;16.28;100.00;100605.50;5015660;28;20061;-89
2023/10/06 07:13:12;;;;;;;9.75;5.03;;;;;;;16.58;100.00;100600.31;5015402;28;20029;-89
2023/10/06 07:15:37;;;;;;;7.53;4.97;;;;;;;16.83;100.00;100598.00;5015608;28;20090;-89
2023/10/06 07:18:03;;;;;;;6.88;4.57;;;;;;;16.87;100.00;100572.38;5014862;28;20116;-89
2023/10/06 07:20:30;;;;;;;8.40;4.70;;;;;;;17.25;99.58;100588.53;5015485;28;20397;-89
2023/10/06 07:23:00;;;;;;;8.80;4.80;;;;;;;17.50;98.58;100593.19;5031786;28;20033;-89
2023/10/06 07:25:26;;;;;;;11.85;6.63;;;;;;;17.65;97.15;100562.41;5015359;28;20210;-89
2023/10/06 07:27:55;;;;;;;9.02;4.85;;;;;;;17.82;95.79;100588.59;5016084;28;20040;-89
2023/10/06 07:30:22;;;;;;;6.95;4.70;;;;;;;17.71;95.63;100572.59;5032864;28;20128;-90
2023/10/06 07:32:50;;;;;;;9.18;4.72;;;;;;;17.71;96.11;100578.72;5032898;28;20497;-89
2023/10/06 07:35:17;;;;;;;6.78;5.00;;;;;;;17.49;96.06;100543.22;4992252;28;20050;-89
2023/10/06 07:37:47;;;;;;;5.55;4.72;;;;;;;17.53;95.75;100550.88;4992406;28;20082;-89
2023/10/06 07:40:14;;;;;;;9.40;4.70;;;;;;;17.57;96.02;100518.13;4975787;28;20065;-89
2023/10/06 07:42:44;;;;;;;7.93;5.05;;;;;;;17.95;96.14;100543.91;4975952;28;20027;-88
2023/10/06 07:45:10;;;;;;;7.95;5.32;;;;;;;18.18;94.65;100559.09;4991996;28;20052;-88
2023/10/06 07:47:37;;;;;;;8.73;6.03;;;;;;;18.28;93.67;100556.72;4992297;28;20026;-88
2023/10/06 07:50:07;;;;;;;8.85;5.43;;;;;;;18.23;93.41;100529.78;4991779;28;20468;-88
2023/10/06 07:52:33;;;;;;;8.15;5.85;;;;;;;18.43;93.69;100549.63;4992169;28;20030;-89
2023/10/06 07:54:59;;;;;;;8.00;5.80;;;;;;;18.40;93.03;100523.44;4975367;28;20039;-89
2023/10/06 07:57:31;;;;;;;12.43;6.63;;;;;;;18.55;93.00;100537.41;4992046;28;20486;-89
2023/10/06 07:59:59;;;;;;;7.72;5.70;;;;;;;18.77;92.81;100543.00;4975432;28;20035;-89
2023/10/06 08:02:24;;;;;;;10.45;6.80;;;;;;;18.91;91.67;100548.19;4975608;28;20497;-89
2023/10/06 08:04:51;;;;;;;10.50;7.15;;;;;;;19.01;90.37;100544.97;4975583;28;20125;-88
2023/10/06 08:07:16;;;;;;;8.02;6.10;;;;;;;19.00;89.98;100530.03;5012759;28;20041;-89
2023/10/06 08:09:41;;;;;;;10.10;5.93;;;;;;;19.12;90.03;100529.22;5032265;28;20049;-89
2023/10/06 08:12:08;;;;;;;8.68;6.03;;;;;;;19.20;89.50;100542.75;5032073;28;20021;-89
2023/10/06 08:14:33;;;;;;;12.13;6.95;;;;;;;19.30;89.37;100553.50;5033503;28;20431;-89
2023/10/06 08:16:59;;;;;;;7.30;5.95;;;;;;;18.99;89.58;100497.50;5015399;28;20025;-89
2023/10/06 08:19:24;;;;;;;9.93;6.78;;;;;;;19.16;88.98;100546.53;5032165;28;20384;-90
2023/10/06 08:21:50;;;;;;;10.18;6.22;;;;;;;19.11;89.37;100546.00;5032260;28;20032;-90
2023/10/06 08:24:15;;;;;;;8.68;6.43;;;;;;;19.06;88.57;100545.47;5032093;28;20476;-90
2023/10/06 08:26:41;;;;;;;10.05;5.57;;;;;;;18.99;89.38;100550.31;5015630;28;20051;-89
2023/10/06 08:29:06;;;;;;;8.43;6.03;;;;;;;18.90;89.70;100543.88;5032194;28;20473;-89
2023/10/06 08:31:31;;;;;;;9.68;7.30;;;;;;;19.03;89.78;100564.16;5015488;28;20099;-89
2023/10/06 08:33:58;;;;;;;10.68;6.25;;;;;;;18.87;89.61;100538.78;5015173;28;20091;-89
2023/10/06 08:36:23;;;;;;;7.20;5.53;;;;;;;18.95;89.74;100554.94;5031987;28;20025;-89
2023/10/06 08:38:51;;;;;;;7.03;5.93;;;;;;;18.94;90.15;100565.63;5033294;28;20041;-89
2023/10/06 08:41:26;;;;;;;7.55;5.75;;;;;;;18.82;90.90;100555.88;5014957;28;20021;-90
2023/10/06 08:43:53;;;;;;;8.15;5.93;;;;;;;18.77;91.08;100565.91;5031766;28;20714;-89
2023/10/06 08:46:19;;;;;;;13.40;6.85;;;;;;;18.52;91.00;100566.63;5031234;28;20033;-89
2023/10/06 08:48:46;;;;;;;9.13;6.68;;;;;;;18.27;91.99;100557.66;5031861;28;20509;-89
2023/10/06 08:51:14;;;;;;;8.18;7.10;;;;;;;18.08;92.59;100562.44;5016830;28;20469;-89
2023/10/06 08:53:40;;;;;;;12.45;7.25;;;;;;;17.77;93.14;100535.34;5031523;28;20132;-89
2023/10/06 08:56:06;;;;;;;8.48;6.10;;;;;;;17.61;94.35;100542.47;5014685;28;20029;-90
2023/10/06 08:58:32;;;;;;;11.05;6.45;;;;;;;17.60;95.26;100552.16;5031318;28;20029;-90
2023/10/06 09:00:58;;;;;;;11.23;6.60;;;;;;;17.65;95.85;100549.25;5032837;28;20087;-89
2023/10/06 09:03:23;;;;;;;9.35;7.10;;;;;;;17.83;96.24;100547.31;5032481;28;20041;-89
2023/10/06 09:05:50;;;;;;;8.32;6.40;;;;;;;17.94;95.83;100547.47;5031316;28;20441;-89
2023/10/06 09:08:17;;;;;;;10.57;5.75;;;;;;;17.85;96.08;100512.00;5014304;28;20046;-89
2023/10/06 09:10:54;;;;;;;10.68;6.18;;;;;;;18.15;95.87;100558.44;5031133;28;20025;-89
2023/10/06 09:13:21;;;;;;;8.32;5.25;;;;;;;18.24;95.13;100549.94;5014285;28;20037;-89
2023/10/06 09:16:03;;;;;;;8.60;6.00;;;;;;;18.25;94.86;100546.38;4990281;28;20104;-89
2023/10/06 09:18:29;;;;;;;8.50;5.30;;;;;;;18.00;93.79;100528.66;4974146;28;20030;-90
2023/10/06 09:21:09;;;;;;;12.65;5.63;;;;;;;17.82;92.82;100520.09;4975337;28;20183;-90
2023/10/06 09:23:42;;;;;;;6.97;5.07;;;;;;;17.87;94.17;100525.94;4974088;28;20040;-89
2023/10/06 09:26:11;;;;;;;7.18;5.53;;;;;;;17.94;94.75;100515.84;4954322;28;20039;-89
2023/10/06 09:28:55;;;;;;;7.93;5.47;;;;;;;17.97;94.89;100499.00;4971021;28;20181;-89
2023/10/06 09:31:36;;;;;;;8.35;5.00;;;;;;;18.31;93.99;100540.69;4951214;29;20043;-89
2023/10/06 09:34:02;;;;;;;7.25;5.10;;;;;;;18.33;93.54;100533.56;4955594;28;20031;-89
2023/10/06 09:36:33;;;;;;;10.27;6.13;;;;;;;18.27;93.26;100506.72;4951063;29;20094;-89
2023/10/06 09:39:14;;;;;;;8.00;5.57;;;;;;;18.33;92.72;100515.09;4935398;29;20031;-89
2023/10/06 09:41:40;;;;;;;9.20;5.22;;;;;;;18.22;92.62;100511.44;4935083;29;20035;-89
2023/10/06 09:44:11;;;;;;;8.70;5.43;;;;;;;18.28;92.90;100516.31;4951138;29;20035;-89
2023/10/06 09:46:41;;;;;;;6.18;4.97;;;;;;;18.31;92.84;100509.06;4951856;28;20585;-89
2023/10/06 09:49:11;;;;;;;7.55;4.63;;;;;;;18.24;92.20;100509.53;4990099;28;20042;-89
2023/10/06 09:51:37;;;;;;;5.45;3.85;;;;;;;18.09;92.36;100490.31;4990413;28;20046;-89
2023/10/06 09:54:09;;;;;;;7.88;4.32;;;;;;;17.90;92.67;100472.16;4990092;28;20444;-89
2023/10/06 09:56:34;;;;;;;7.10;3.72;;;;;;;17.92;93.23;100496.66;4996378;28;20045;-89
2023/10/06 09:59:00;;;;;;;4.78;3.28;;;;;;;17.95;93.62;100502.56;5009322;28;20480;-89
2023/10/06 10:01:28;;;;;;;5.25;3.40;;;;;;;17.92;93.48;100473.78;5012364;28;20029;-89
2023/10/06 10:03:55;;;;;;;4.55;3.85;;;;;;;18.10;92.55;100482.28;5031963;28;20032;-88
2023/10/06 10:06:22;;;;;;;8.00;4.13;;;;;;;18.25;92.52;100495.44;5031875;28;20029;-89
2023/10/06 10:08:48;;;;;;;4.35;3.08;;;;;;;18.37;92.71;100492.84;5013933;28;20049;-89
2023/10/06 10:11:20;;;;;;;6.68;3.75;;;;;;;18.47;91.78;100486.97;5030260;28;20079;-88
2023/10/06 10:14:12;;;;;;;6.93;4.30;;;;;;;18.42;90.81;100464.38;5030414;28;20025;-89
2023/10/06 10:17:16;;;;;;;6.88;4.13;;;;;;;18.63;90.84;100496.38;5013849;28;20033;-89
2023/10/06 10:19:45;;;;;;;5.32;3.58;;;;;;;18.55;91.12;100471.47;5023840;28;20120;-89
2023/10/06 10:22:16;;;;;;;7.60;4.18;;;;;;;18.47;91.19;100450.88;5038136;28;20064;-89
2023/10/06 10:24:43;;;;;;;5.85;3.50;;;;;;;18.70;90.85;100481.84;5027040;28;20049;-89
2023/10/06 10:27:14;;;;;;;6.25;3.38;;;;;;;18.72;89.37;100478.28;5027120;28;20024;-89
2023/10/06 10:29:41;;;;;;;5.50;3.65;;;;;;;18.66;88.41;100456.59;5033621;28;20033;-89
2023/10/06 10:32:23;;;;;;;6.63;3.58;;;;;;;18.76;88.50;100474.50;5050023;28;20094;-89
2023/10/06 10:35:20;;;;;;;6.65;4.13;;;;;;;18.79;88.67;100484.81;5032204;28;20528;-90
2023/10/06 10:37:57;;;;;;;7.65;3.83;;;;;;;18.84;89.11;100485.38;4951147;29;20043;-89
2023/10/06 10:40:27;;;;;;;7.82;4.47;;;;;;;18.83;89.61;100479.22;4950767;29;20511;-89
2023/10/06 10:43:06;;;;;;;5.32;4.18;;;;;;;18.81;89.77;100475.03;4950782;28;20058;-90
2023/10/06 10:45:36;;;;;;;5.68;3.75;;;;;;;18.88;90.40;100487.69;4934918;29;20038;-89
2023/10/06 10:48:14;;;;;;;6.28;4.30;;;;;;;18.81;90.15;100475.88;4934928;29;20070;-89
2023/10/06 10:50:59;;;;;;;5.43;3.47;;;;;;;18.98;89.21;100489.72;4931578;29;20067;-89
2023/10/06 10:53:34;;;;;;;6.50;4.03;;;;;;;18.82;88.88;100459.06;4934143;29;20423;-89
2023/10/06 10:56:01;;;;;;;5.07;3.45;;;;;;;18.92;88.39;100468.06;4935208;29;20036;-89
2023/10/06 10:58:56;;;;;;;7.38;3.53;;;;;;;18.96;88.23;100471.31;4934839;29;20499;-89
2023/10/06 11:01:31;;;;;;;6.90;3.75;;;;;;;18.94;88.39;100470.59;4878375;29;20071;-89
2023/10/06 11:07:09;;;;;;;7.55;3.88;;;;;;;18.73;88.29;100427.19;4878708;29;20043;-89
2023/10/06 11:09:41;;;;;;;4.97;3.60;;;;;;;18.83;88.87;100438.78;4878434;29;20049;-89
2023/10/06 11:12:20;;;;;;;6.10;3.65;;;;;;;18.60;88.20;100406.88;4862395;29;20097;-89
2023/10/06 11:14:46;;;;;;;3.85;2.83;;;;;;;18.75;88.13;100441.09;4915839;29;20485;-89
2023/10/06 11:17:12;;;;;;;4.45;3.42;;;;;;;18.76;87.46;100421.72;4899929;29;20080;-89
2023/10/06 11:19:39;;;;;;;4.85;2.83;;;;;;;18.74;88.17;100420.97;4900086;29;20055;-89
2023/10/06 11:22:13;;;;;;;7.38;3.58;;;;;;;18.52;87.93;100384.59;4926480;29;20139;-89
2023/10/06 11:24:40;;;;;;;4.82;3.75;;;;;;;18.55;88.58;100381.78;4937701;29;20042;-89
2023/10/06 11:27:17;;;;;;;3.47;2.65;;;;;;;18.58;88.79;100371.00;4937489;29;20083;-89
2023/10/06 11:29:44;;;;;;;4.78;3.20;;;;;;;18.53;88.69;100349.34;4937831;29;20211;-89
2023/10/06 11:32:11;;;;;;;6.38;3.10;;;;;;;18.79;88.46;100384.53;4937455;29;20054;-89
2023/10/06 11:34:36;;;;;;;7.07;3.63;;;;;;;18.73;88.74;100362.06;4937650;29;20091;-89
2023/10/06 11:37:02;;;;;;;7.50;3.30;;;;;;;18.69;88.01;100353.50;4953084;28;20041;-89